createdAt,value
2023-04-19T00:03:01.262Z,96958.23
2023-04-19T00:13:04.525Z,96944.05
2023-04-19T00:23:07.715Z,96941.15
2023-04-19T00:33:13.162Z,96930.86
2023-04-19T00:43:19.936Z,96922.23
2023-04-19T00:53:23.018Z,96912.30
2023-04-19T01:03:29.610Z,96902.09
2023-04-19T01:14:05.480Z,96896.17
2023-04-19T01:24:08.607Z,96878.36
2023-04-19T01:34:11.660Z,96865.12
2023-04-19T01:44:15.069Z,96853.48
2023-04-19T01:54:18.388Z,96841.97
2023-04-19T02:04:22.304Z,96836.21
2023-04-19T02:14:26.077Z,96829.89
2023-04-19T02:24:29.760Z,96822.65
2023-04-19T02:34:34.790Z,96811.72
2023-04-19T02:44:38.090Z,96806.11
2023-04-19T02:55:13.158Z,96796.31
2023-04-19T03:05:17.234Z,96781.38
2023-04-19T03:15:20.859Z,96767.60
2023-04-19T03:25:23.964Z,96755.09
2023-04-19T03:36:07.180Z,96748.04
2023-04-19T03:46:43.681Z,96736.98
2023-04-19T03:56:48.145Z,96725.30
2023-04-19T04:06:51.881Z,96721.21
2023-04-19T04:17:27.764Z,96716.59
2023-04-19T04:27:31.556Z,96718.53
2023-04-19T04:37:35.750Z,96717.45
2023-04-19T04:48:11.692Z,96718.20
2023-04-19T04:58:15.040Z,96723.20
2023-04-19T05:08:45.195Z,96713.05
2023-04-19T05:18:55.683Z,96712.42
2023-04-19T05:28:59.915Z,96714.70
2023-04-19T05:39:21.326Z,96715.69
2023-04-19T05:49:56.548Z,96702.17
2023-04-19T06:00:13.546Z,96695.10
2023-04-19T06:10:16.650Z,96693.27
2023-04-19T06:20:19.869Z,96701.91
2023-04-19T06:30:55.742Z,96708.85
2023-04-19T06:41:30.380Z,96709.00
2023-04-19T06:51:34.015Z,96701.80
2023-04-19T07:01:38.432Z,96702.88
2023-04-19T07:11:41.730Z,96697.54
2023-04-19T07:21:44.895Z,96701.75
2023-04-19T07:31:48.278Z,96704.20
2023-04-19T07:42:24.727Z,96704.63
2023-04-19T07:52:27.850Z,96712.29
2023-04-19T08:02:31.273Z,96715.04
2023-04-19T08:12:42.703Z,96714.86
2023-04-19T08:23:31.810Z,96715.92
2023-04-19T08:33:41.140Z,96712.96
2023-04-19T08:43:44.319Z,96713.32
2023-04-19T08:53:49.782Z,96713.77
2023-04-19T09:04:04.922Z,96715.69
2023-04-19T09:14:16.540Z,96717.50
2023-04-19T09:24:19.718Z,96718.34
2023-04-19T09:34:24.190Z,96718.56
2023-04-19T09:54:34.325Z,96723.67
2023-04-19T10:05:20.460Z,96721.21
2023-04-19T10:16:15.497Z,96723.31
2023-04-19T10:26:22.410Z,96722.59
2023-04-19T10:36:58.066Z,96721.59
2023-04-19T10:47:01.221Z,96720.50
2023-04-19T10:57:06.446Z,96723.25
2023-04-19T11:07:09.763Z,96732.85
2023-04-19T11:17:18.111Z,96731.94
2023-04-19T11:27:53.788Z,96725.11
2023-04-19T11:38:29.022Z,96718.41
2023-04-19T11:48:36.320Z,96719.66
2023-04-19T11:58:52.166Z,96718.38
2023-04-19T12:08:59.848Z,96720.80
2023-04-19T12:19:58.396Z,96733.58
2023-04-19T12:30:01.935Z,96738.45
2023-04-19T12:40:10.194Z,96738.71
2023-04-19T12:50:46.124Z,96733.73
2023-04-19T13:01:21.402Z,96736.70
2023-04-19T13:11:24.606Z,96734.41
2023-04-19T13:21:28.194Z,96730.14
2023-04-19T13:32:07.845Z,96732.31
2023-04-19T13:42:24.539Z,96729.89
2023-04-19T13:52:35.511Z,96739.13
2023-04-19T14:02:42.314Z,96740.39
2023-04-19T14:13:29.681Z,96730.34
2023-04-19T14:24:07.878Z,96723.21
2023-04-19T14:34:13.858Z,96726.89
2023-04-19T14:44:22.632Z,96728.14
2023-04-19T14:54:28.548Z,96736.85
2023-04-19T15:05:04.696Z,96738.75
2023-04-19T15:15:11.206Z,96750.66
2023-04-19T15:25:14.714Z,96757.85
2023-04-19T15:35:18.004Z,96760.23
2023-04-19T15:45:53.416Z,96764.91
2023-04-19T15:56:02.369Z,96773.85
2023-04-19T16:06:09.353Z,96786.69
2023-04-19T16:16:55.599Z,96792.58
2023-04-19T16:27:31.433Z,96798.34
2023-04-19T16:37:35.424Z,96803.80
2023-04-19T16:47:46.457Z,96804.17
2023-04-19T17:08:46.084Z,96818.19
2023-04-19T17:18:49.158Z,96826.92
2023-04-19T17:28:52.248Z,96828.17
2023-04-19T17:38:55.287Z,96835.05
2023-04-19T17:48:58.522Z,96838.41
2023-04-19T17:59:03.897Z,96848.56
2023-04-19T18:09:07.799Z,96867.58
2023-04-19T18:19:11.057Z,96887.30
2023-04-19T18:29:16.084Z,96890.45
2023-04-19T18:39:19.430Z,96900.00
2023-04-19T18:49:25.808Z,96903.58
2023-04-19T18:59:29.010Z,96910.56
2023-04-19T19:09:32.044Z,96914.72
2023-04-19T19:19:35.581Z,96920.63
2023-04-19T19:29:38.914Z,96928.67
2023-04-19T19:39:42.009Z,96933.41
2023-04-19T19:50:09.706Z,96941.63
2023-04-19T20:00:31.913Z,96941.61
2023-04-19T20:10:34.203Z,96937.98
2023-04-19T20:20:37.587Z,96936.17
2023-04-19T20:30:41.231Z,96936.56
2023-04-19T20:40:44.745Z,96929.71
2023-04-19T20:50:47.786Z,96928.79
2023-04-19T21:00:51.254Z,96933.55
2023-04-19T21:10:54.346Z,96937.02
2023-04-19T21:20:59.076Z,96937.10
2023-04-19T21:31:02.734Z,96936.08
2023-04-19T21:41:07.412Z,96930.29
2023-04-19T21:51:12.853Z,96932.52
2023-04-19T22:11:20.252Z,96942.71
2023-04-19T22:21:25.492Z,96944.63
2023-04-19T22:31:28.806Z,96942.66
2023-04-19T22:41:33.484Z,96939.75
2023-04-19T22:51:39.700Z,96943.35
2023-04-19T23:01:43.168Z,96943.55
2023-04-19T23:11:47.379Z,96943.88
2023-04-19T23:21:50.455Z,96940.04
2023-04-19T23:31:53.653Z,96938.18
2023-04-19T23:41:56.790Z,96920.54
2023-04-19T23:52:00.124Z,96911.53
